createdAt,value
2022-11-19T00:00:40.747Z,99.99
2022-11-19T00:01:40.762Z,99.99
2022-11-19T00:02:40.776Z,99.99
2022-11-19T00:03:40.796Z,99.99
2022-11-19T00:04:40.810Z,99.99
2022-11-19T00:05:40.828Z,99.99
2022-11-19T00:06:40.843Z,99.99
2022-11-19T00:07:40.912Z,99.99
2022-11-19T00:08:40.880Z,99.99
2022-11-19T00:09:40.891Z,99.99
2022-11-19T00:10:40.909Z,99.99
2022-11-19T00:11:40.927Z,99.99
2022-11-19T00:12:40.944Z,99.99
2022-11-19T00:13:40.961Z,99.99
2022-11-19T00:14:40.977Z,99.99
2022-11-19T00:15:40.992Z,99.99
2022-11-19T00:16:41.007Z,99.99
2022-11-19T00:17:41.026Z,99.99
2022-11-19T00:18:41.049Z,99.99
2022-11-19T00:19:41.063Z,99.99
2022-11-19T00:20:41.077Z,99.99
2022-11-19T00:21:41.093Z,99.99
2022-11-19T00:22:41.116Z,99.99
2022-11-19T00:23:41.132Z,99.99
2022-11-19T00:24:41.154Z,99.99
2022-11-19T00:25:41.163Z,99.99
2022-11-19T00:26:41.175Z,99.99
2022-11-19T00:27:41.194Z,99.99
2022-11-19T00:28:41.209Z,99.99
2022-11-19T00:29:41.229Z,99.99
2022-11-19T00:30:48.196Z,99.99
2022-11-19T00:31:41.260Z,99.99
2022-11-19T00:32:41.274Z,99.99
2022-11-19T00:33:41.291Z,99.99
2022-11-19T00:34:41.314Z,99.99
2022-11-19T00:35:41.331Z,99.99
2022-11-19T00:36:41.344Z,99.99
2022-11-19T00:37:41.364Z,99.99
2022-11-19T00:38:41.374Z,99.99
2022-11-19T00:39:41.392Z,99.99
2022-11-19T00:40:41.407Z,99.99
2022-11-19T00:41:41.426Z,99.99
2022-11-19T00:42:41.441Z,99.99
2022-11-19T00:43:41.458Z,99.99
2022-11-19T00:44:41.474Z,99.99
2022-11-19T00:45:41.490Z,99.99
2022-11-19T00:46:41.506Z,99.99
2022-11-19T00:47:41.530Z,99.99
2022-11-19T00:48:41.543Z,99.99
2022-11-19T00:49:41.557Z,99.99
2022-11-19T00:50:41.574Z,99.99
2022-11-19T00:51:41.589Z,99.99
2022-11-19T00:52:41.613Z,99.99
2022-11-19T00:53:41.629Z,99.99
2022-11-19T00:54:41.638Z,99.99
2022-11-19T00:55:41.656Z,99.99
2022-11-19T00:56:41.671Z,99.99
2022-11-19T00:57:41.695Z,99.99
2022-11-19T00:58:41.709Z,99.99
2022-11-19T00:59:41.725Z,99.99
2022-11-19T01:00:41.740Z,99.99
2022-11-19T01:01:41.836Z,99.99
2022-11-19T01:02:41.778Z,99.99
2022-11-19T01:03:41.787Z,99.99
2022-11-19T01:04:41.804Z,99.99
2022-11-19T01:05:41.822Z,99.99
2022-11-19T01:06:41.837Z,99.99
2022-11-19T01:07:41.855Z,99.99
2022-11-19T01:08:41.872Z,99.99
2022-11-19T01:09:41.889Z,99.99
2022-11-19T01:10:41.905Z,99.99
2022-11-19T01:11:41.940Z,99.99
2022-11-19T01:12:41.937Z,99.99
2022-11-19T01:13:41.954Z,99.99
2022-11-19T01:14:41.969Z,99.99
2022-11-19T01:15:41.988Z,99.99
2022-11-19T01:16:42.009Z,99.99
2022-11-19T01:17:42.022Z,99.99
2022-11-19T01:18:42.069Z,99.99
2022-11-19T01:19:42.054Z,99.99
2022-11-19T01:20:42.127Z,99.99
2022-11-19T01:21:42.090Z,99.99
2022-11-19T01:22:42.105Z,99.99
2022-11-19T01:23:42.121Z,99.99
2022-11-19T01:24:42.156Z,99.99
2022-11-19T01:25:42.155Z,99.99
2022-11-19T01:26:45.706Z,99.99
2022-11-19T01:27:42.188Z,99.99
2022-11-19T01:28:42.207Z,99.99
2022-11-19T01:29:42.221Z,99.99
2022-11-19T01:30:42.233Z,99.99
2022-11-19T01:31:42.250Z,99.99
2022-11-19T01:32:42.277Z,99.99
2022-11-19T01:33:42.302Z,99.99
2022-11-19T01:34:42.300Z,99.99
2022-11-19T01:35:42.319Z,99.99
2022-11-19T01:36:42.337Z,99.99
2022-11-19T01:37:42.354Z,99.99
2022-11-19T01:38:42.374Z,99.99
2022-11-19T01:39:42.385Z,99.99
2022-11-19T01:40:42.403Z,99.99
2022-11-19T01:41:42.419Z,99.99
2022-11-19T01:42:42.437Z,99.99
2022-11-19T01:43:42.454Z,99.99
2022-11-19T01:44:42.470Z,99.99
2022-11-19T01:45:42.485Z,99.99
2022-11-19T01:46:42.500Z,99.99
2022-11-19T01:47:42.519Z,99.99
2022-11-19T01:48:42.536Z,99.99
2022-11-19T01:49:42.552Z,99.99
2022-11-19T01:50:42.583Z,99.99
2022-11-19T01:51:42.591Z,99.99
2022-11-19T01:52:42.601Z,99.99
2022-11-19T01:53:42.618Z,99.99
2022-11-19T01:54:42.635Z,99.99
2022-11-19T01:55:42.652Z,99.99
2022-11-19T01:56:42.681Z,99.99
2022-11-19T01:57:42.686Z,99.99
2022-11-19T01:58:42.700Z,99.99
2022-11-19T01:59:42.717Z,99.99
2022-11-19T02:00:42.731Z,99.99
2022-11-19T02:01:42.795Z,99.99
2022-11-19T02:02:42.767Z,99.99
2022-11-19T02:03:42.784Z,99.99
2022-11-19T02:04:42.807Z,99.99
2022-11-19T02:05:42.820Z,99.99
2022-11-19T02:06:42.831Z,99.99
2022-11-19T02:07:42.856Z,99.99
2022-11-19T02:08:42.865Z,99.99
2022-11-19T02:09:42.884Z,99.99
2022-11-19T02:10:42.898Z,99.99
2022-11-19T02:11:42.916Z,99.99
2022-11-19T02:12:42.936Z,99.99
2022-11-19T02:13:42.960Z,99.99
2022-11-19T02:14:42.964Z,99.99
2022-11-19T02:15:42.990Z,99.99
2022-11-19T02:16:43.002Z,99.99
2022-11-19T02:17:43.020Z,99.99
2022-11-19T02:18:43.033Z,99.99
2022-11-19T02:19:43.049Z,99.99
2022-11-19T02:20:43.093Z,99.99
2022-11-19T02:21:43.082Z,99.99
2022-11-19T02:22:43.096Z,99.99
2022-11-19T02:23:46.175Z,99.99
2022-11-19T02:24:43.132Z,99.99
2022-11-19T02:25:43.149Z,99.99
2022-11-19T02:26:43.163Z,99.99
2022-11-19T02:27:43.181Z,99.99
2022-11-19T02:28:43.195Z,99.99
2022-11-19T02:29:43.214Z,99.99
2022-11-19T02:30:43.242Z,99.99
2022-11-19T02:31:43.246Z,99.99
2022-11-19T02:32:43.265Z,99.99
2022-11-19T02:33:43.282Z,99.99
2022-11-19T02:34:43.302Z,99.99
2022-11-19T02:35:43.312Z,99.99
2022-11-19T02:36:43.332Z,99.99
2022-11-19T02:37:43.350Z,99.99
2022-11-19T02:38:43.358Z,99.99
2022-11-19T02:39:43.379Z,99.99
2022-11-19T02:40:43.390Z,99.99
2022-11-19T02:41:43.419Z,99.99
2022-11-19T02:42:43.427Z,99.99
2022-11-19T02:43:43.444Z,99.99
2022-11-19T02:44:43.459Z,99.99
2022-11-19T02:45:43.480Z,99.99
2022-11-19T02:46:43.493Z,99.99
2022-11-19T02:47:43.510Z,99.99
2022-11-19T02:48:43.528Z,99.99
2022-11-19T02:49:43.548Z,99.99
2022-11-19T02:50:43.558Z,99.99
2022-11-19T02:51:43.580Z,99.99
2022-11-19T02:52:43.592Z,99.99
2022-11-19T02:53:43.610Z,99.99
2022-11-19T02:54:43.628Z,99.99
2022-11-19T02:55:43.640Z,99.99
2022-11-19T02:56:43.660Z,99.99
2022-11-19T02:57:43.674Z,99.99
2022-11-19T02:58:43.688Z,99.99
2022-11-19T02:59:43.716Z,99.99
2022-11-19T03:00:43.723Z,99.99
2022-11-19T03:01:43.795Z,99.99
2022-11-19T03:02:43.755Z,99.99
2022-11-19T03:03:43.771Z,99.99
2022-11-19T03:04:43.788Z,99.99
2022-11-19T03:05:43.807Z,99.99
2022-11-19T03:06:43.821Z,99.99
2022-11-19T03:07:43.836Z,99.99
2022-11-19T03:08:43.855Z,99.99
2022-11-19T03:09:43.870Z,99.99
2022-11-19T03:10:43.885Z,99.99
2022-11-19T03:11:43.903Z,99.99
2022-11-19T03:12:43.920Z,99.99
2022-11-19T03:13:43.941Z,99.99
2022-11-19T03:14:43.949Z,99.99
2022-11-19T03:15:43.977Z,99.99
2022-11-19T03:16:43.987Z,99.99
2022-11-19T03:17:44.001Z,99.99
2022-11-19T03:18:44.025Z,99.99
2022-11-19T03:19:44.041Z,99.99
2022-11-19T03:20:44.063Z,99.99
2022-11-19T03:21:44.069Z,99.99
2022-11-19T03:22:44.083Z,99.99
2022-11-19T03:23:44.104Z,99.99
2022-11-19T03:24:44.120Z,99.99
2022-11-19T03:25:44.137Z,99.99
2022-11-19T03:26:44.150Z,99.99
2022-11-19T03:27:44.167Z,99.99
2022-11-19T03:28:44.185Z,99.99
2022-11-19T03:29:44.198Z,99.99
2022-11-19T03:30:44.213Z,99.99
2022-11-19T03:31:44.235Z,99.99
2022-11-19T03:32:44.252Z,99.99
2022-11-19T03:33:44.264Z,99.99
2022-11-19T03:34:44.282Z,99.99
2022-11-19T03:35:44.296Z,99.99
2022-11-19T03:36:44.312Z,99.99
2022-11-19T03:37:44.333Z,99.99
2022-11-19T03:38:44.344Z,99.99
2022-11-19T03:39:44.363Z,99.99
2022-11-19T03:40:44.377Z,99.99
2022-11-19T03:41:44.394Z,99.99
2022-11-19T03:42:44.425Z,99.99
2022-11-19T03:43:44.428Z,99.99
2022-11-19T03:44:44.450Z,99.99
2022-11-19T03:45:44.461Z,99.99
2022-11-19T03:46:44.474Z,99.99
2022-11-19T03:47:44.490Z,99.99
2022-11-19T03:48:44.509Z,99.99
2022-11-19T03:49:44.525Z,99.99
2022-11-19T03:50:44.539Z,99.99
2022-11-19T03:51:44.565Z,99.99
2022-11-19T03:52:44.580Z,99.99
2022-11-19T03:53:44.587Z,99.99
2022-11-19T03:54:44.607Z,99.99
2022-11-19T03:55:44.622Z,99.99
2022-11-19T03:56:44.641Z,99.99
2022-11-19T03:57:44.654Z,99.99
2022-11-19T03:58:44.684Z,99.99
2022-11-19T03:59:44.688Z,99.99
2022-11-19T04:00:44.703Z,99.99
2022-11-19T04:01:44.743Z,99.99
2022-11-19T04:02:44.735Z,99.99
2022-11-19T04:03:44.749Z,99.99
2022-11-19T04:04:44.770Z,99.99
2022-11-19T04:05:44.783Z,99.99
2022-11-19T04:06:44.799Z,99.99
2022-11-19T04:07:44.813Z,99.99
2022-11-19T04:08:44.832Z,99.99
2022-11-19T04:09:44.846Z,99.99
2022-11-19T04:10:44.861Z,99.99
2022-11-19T04:12:05.891Z,99.99
2022-11-19T04:12:44.893Z,99.99
2022-11-19T04:13:44.911Z,99.99
2022-11-19T04:14:44.931Z,99.99
2022-11-19T04:15:44.940Z,99.99
2022-11-19T04:16:44.966Z,99.99
2022-11-19T04:17:44.974Z,99.99
2022-11-19T04:18:44.999Z,99.99
2022-11-19T04:19:45.004Z,99.99
2022-11-19T04:20:45.020Z,99.99
2022-11-19T04:21:45.036Z,99.99
2022-11-19T04:22:45.051Z,99.99
2022-11-19T04:23:45.066Z,99.99
2022-11-19T04:24:45.087Z,99.99
2022-11-19T04:25:45.111Z,99.99
2022-11-19T04:26:45.113Z,99.99
2022-11-19T04:27:45.146Z,99.99
2022-11-19T04:28:45.143Z,99.99
2022-11-19T04:29:45.159Z,99.99
2022-11-19T04:30:45.174Z,99.99
2022-11-19T04:31:45.189Z,99.99
2022-11-19T04:32:45.202Z,99.99
2022-11-19T04:33:45.226Z,99.99
2022-11-19T04:34:45.235Z,99.99
2022-11-19T04:35:45.250Z,99.99
2022-11-19T04:36:45.265Z,99.99
2022-11-19T04:37:45.284Z,99.99
2022-11-19T04:38:45.301Z,99.99
2022-11-19T04:39:45.314Z,99.99
2022-11-19T04:40:45.330Z,99.99
2022-11-19T04:41:45.345Z,99.99
2022-11-19T04:42:45.357Z,99.99
2022-11-19T04:43:45.375Z,99.99
2022-11-19T04:44:45.393Z,99.99
2022-11-19T04:45:45.408Z,99.99
2022-11-19T04:46:45.419Z,99.99
2022-11-19T04:47:45.437Z,99.99
2022-11-19T04:48:45.455Z,99.99
2022-11-19T04:49:45.466Z,99.99
2022-11-19T04:50:45.480Z,99.99
2022-11-19T04:51:45.499Z,99.99
2022-11-19T04:52:45.524Z,99.99
2022-11-19T04:53:45.531Z,99.99
2022-11-19T04:54:45.553Z,99.99
2022-11-19T04:55:45.561Z,99.99
2022-11-19T04:56:45.570Z,99.99
2022-11-19T04:57:45.590Z,99.99
2022-11-19T04:58:45.606Z,99.99
2022-11-19T04:59:45.671Z,99.99
2022-11-19T05:00:45.640Z,99.99
2022-11-19T05:01:45.692Z,99.99
2022-11-19T05:02:45.665Z,99.99
2022-11-19T05:03:45.684Z,99.99
2022-11-19T05:04:45.695Z,99.99
2022-11-19T05:05:45.717Z,99.99
2022-11-19T05:06:45.727Z,99.99
2022-11-19T05:07:45.743Z,99.99
2022-11-19T05:08:45.760Z,99.99
2022-11-19T05:09:45.782Z,99.99
2022-11-19T05:10:45.790Z,99.99
2022-11-19T05:11:45.807Z,99.99
2022-11-19T05:12:45.822Z,99.99
2022-11-19T05:13:45.836Z,99.99
2022-11-19T05:14:45.851Z,99.99
2022-11-19T05:15:45.867Z,99.99
2022-11-19T05:16:45.880Z,99.99
2022-11-19T05:17:45.910Z,99.99
2022-11-19T05:18:45.910Z,99.99
2022-11-19T05:19:45.930Z,99.99
2022-11-19T05:20:45.938Z,99.99
2022-11-19T05:21:45.959Z,99.99
2022-11-19T05:22:45.968Z,99.99
2022-11-19T05:23:46.038Z,99.99
2022-11-19T05:24:46.001Z,99.99
2022-11-19T05:25:46.017Z,99.99
2022-11-19T05:26:46.031Z,99.99
2022-11-19T05:27:46.054Z,99.99
2022-11-19T05:28:46.071Z,99.99
2022-11-19T05:29:46.079Z,99.99
2022-11-19T05:30:46.092Z,99.99
2022-11-19T05:31:46.108Z,99.99
2022-11-19T05:32:46.124Z,99.99
2022-11-19T05:33:46.141Z,99.99
2022-11-19T05:34:46.148Z,99.99
2022-11-19T05:35:46.169Z,99.99
2022-11-19T05:36:46.184Z,99.99
2022-11-19T05:37:46.196Z,99.99
2022-11-19T05:38:46.212Z,99.99
2022-11-19T05:39:46.224Z,99.99
2022-11-19T05:40:46.244Z,99.99
2022-11-19T05:41:46.258Z,99.99
2022-11-19T05:42:46.275Z,99.99
2022-11-19T05:43:46.286Z,99.99
2022-11-19T05:44:46.304Z,99.99
2022-11-19T05:45:46.321Z,99.99
2022-11-19T05:46:46.333Z,99.99
2022-11-19T05:47:48.754Z,99.99
2022-11-19T05:48:46.365Z,99.99
2022-11-19T05:49:46.378Z,99.99
2022-11-19T05:50:46.391Z,99.99
2022-11-19T05:51:46.406Z,99.99
2022-11-19T05:52:46.422Z,99.99
2022-11-19T05:53:46.465Z,99.99
2022-11-19T05:54:46.451Z,99.99
2022-11-19T05:55:46.465Z,99.99
2022-11-19T05:56:46.492Z,99.99
2022-11-19T05:57:46.498Z,99.99
2022-11-19T05:58:46.510Z,99.99
2022-11-19T05:59:46.528Z,99.99
2022-11-19T06:00:46.542Z,99.99
2022-11-19T06:01:46.557Z,99.99
2022-11-19T06:02:46.630Z,99.99
2022-11-19T06:03:46.587Z,99.99
2022-11-19T06:04:46.601Z,99.99
2022-11-19T06:05:46.631Z,99.99
2022-11-19T06:06:46.628Z,99.99
2022-11-19T06:07:46.646Z,99.99
2022-11-19T06:08:46.662Z,99.99
2022-11-19T06:09:46.676Z,99.99
2022-11-19T06:10:46.688Z,99.99
2022-11-19T06:11:46.706Z,99.99
2022-11-19T06:12:46.732Z,99.99
2022-11-19T06:13:46.731Z,99.99
2022-11-19T06:14:46.747Z,99.99
2022-11-19T06:15:46.763Z,99.99
2022-11-19T06:16:46.781Z,99.99
2022-11-19T06:17:46.794Z,99.99
2022-11-19T06:18:46.851Z,99.99
2022-11-19T06:19:46.833Z,99.99
2022-11-19T06:20:46.844Z,99.99
2022-11-19T06:21:46.853Z,99.99
2022-11-19T06:22:46.868Z,99.95
2022-11-19T06:23:46.881Z,99.99
2022-11-19T06:24:46.896Z,99.99
2022-11-19T06:25:46.912Z,99.38
2022-11-19T06:26:46.926Z,99.14
2022-11-19T06:27:46.943Z,99.14
2022-11-19T06:28:46.956Z,99.66
2022-11-19T06:29:46.974Z,99.52
2022-11-19T06:30:46.990Z,99.52
2022-11-19T06:31:46.999Z,99.57
2022-11-19T06:32:47.016Z,99.33
2022-11-19T06:33:47.030Z,99.61
2022-11-19T06:34:47.040Z,99.52
2022-11-19T06:35:47.071Z,99.57
2022-11-19T06:36:50.507Z,99.71
2022-11-19T06:37:47.089Z,99.33
2022-11-19T06:38:47.103Z,99.42
2022-11-19T06:39:47.119Z,99.42
2022-11-19T06:40:47.131Z,99.33
2022-11-19T06:41:47.147Z,99.04
2022-11-19T06:42:50.789Z,99.04
2022-11-19T06:43:47.176Z,99.23
2022-11-19T06:44:47.190Z,99.14
2022-11-19T06:45:47.223Z,99.33
2022-11-19T06:46:47.219Z,99.14
2022-11-19T06:47:47.237Z,99.80
2022-11-19T06:48:47.247Z,99.52
2022-11-19T06:49:47.263Z,99.61
2022-11-19T06:50:47.277Z,99.61
2022-11-19T06:51:47.290Z,99.52
2022-11-19T06:52:47.306Z,99.23
2022-11-19T06:53:47.322Z,99.52
2022-11-19T06:54:47.337Z,99.42
2022-11-19T06:55:47.364Z,99.04
2022-11-19T06:56:47.365Z,99.23
2022-11-19T06:57:47.381Z,99.23
2022-11-19T06:58:47.394Z,99.04
2022-11-19T06:59:47.407Z,98.85
2022-11-19T07:00:47.424Z,99.42
2022-11-19T07:01:47.635Z,99.42
2022-11-19T07:02:47.451Z,98.95
2022-11-19T07:03:47.467Z,99.14
2022-11-19T07:04:47.479Z,99.14
2022-11-19T07:05:47.496Z,99.23
2022-11-19T07:06:47.521Z,99.23
2022-11-19T07:07:47.526Z,98.95
2022-11-19T07:08:47.540Z,99.14
2022-11-19T07:09:47.555Z,99.04
2022-11-19T07:10:47.573Z,99.14
2022-11-19T07:11:47.586Z,99.42
2022-11-19T07:12:47.595Z,98.47
2022-11-19T07:13:47.610Z,99.14
2022-11-19T07:14:47.649Z,99.42
2022-11-19T07:15:47.637Z,98.47
2022-11-19T07:16:47.654Z,98.57
2022-11-19T07:17:47.670Z,98.47
2022-11-19T07:18:47.685Z,99.14
2022-11-19T07:19:47.698Z,99.52
2022-11-19T07:20:47.714Z,99.23
2022-11-19T07:21:47.726Z,99.23
2022-11-19T07:22:47.743Z,99.14
2022-11-19T07:23:47.760Z,99.04
2022-11-19T07:24:47.774Z,99.04
2022-11-19T07:25:47.786Z,99.23
2022-11-19T07:26:47.803Z,99.04
2022-11-19T07:27:47.814Z,99.42
2022-11-19T07:28:47.827Z,99.42
2022-11-19T07:29:47.848Z,99.14
2022-11-19T07:30:47.857Z,98.76
2022-11-19T07:31:47.872Z,98.47
2022-11-19T07:32:47.887Z,98.66
2022-11-19T07:33:47.909Z,98.85
2022-11-19T07:34:47.923Z,99.04
2022-11-19T07:35:47.933Z,98.76
2022-11-19T07:36:47.944Z,98.47
2022-11-19T07:37:47.961Z,98.85
2022-11-19T07:38:47.975Z,98.47
2022-11-19T07:39:47.993Z,98.47
2022-11-19T07:40:48.004Z,98.66
2022-11-19T07:41:48.020Z,98.47
2022-11-19T07:42:48.032Z,98.47
2022-11-19T07:43:48.058Z,98.57
2022-11-19T07:44:53.539Z,98.66
2022-11-19T07:45:48.078Z,98.47
2022-11-19T07:46:48.091Z,98.10
2022-11-19T07:47:48.100Z,98.28
2022-11-19T07:48:48.121Z,98.00
2022-11-19T07:49:48.132Z,98.10
2022-11-19T07:50:52.352Z,98.10
2022-11-19T07:51:48.163Z,97.91
2022-11-19T07:52:48.190Z,97.81
2022-11-19T07:53:48.193Z,97.81
2022-11-19T07:54:48.217Z,97.81
2022-11-19T07:55:48.220Z,97.06
2022-11-19T07:56:48.238Z,97.06
2022-11-19T07:57:48.249Z,97.06
2022-11-19T07:58:48.265Z,97.53
2022-11-19T07:59:48.277Z,96.78
2022-11-19T08:00:48.296Z,96.78
2022-11-19T08:01:48.368Z,96.68
2022-11-19T08:02:48.323Z,96.68
2022-11-19T08:03:52.037Z,96.11
2022-11-19T08:04:48.355Z,95.73
2022-11-19T08:05:48.369Z,96.40
2022-11-19T08:06:48.383Z,96.07
2022-11-19T08:07:48.396Z,96.35
2022-11-19T08:08:48.413Z,95.50
2022-11-19T08:09:48.425Z,95.73
2022-11-19T08:10:48.445Z,95.69
2022-11-19T08:11:48.454Z,95.88
2022-11-19T08:12:48.470Z,95.59
2022-11-19T08:13:48.483Z,95.40
2022-11-19T08:14:48.499Z,95.21
2022-11-19T08:15:48.513Z,95.40
2022-11-19T08:16:48.527Z,95.03
2022-11-19T08:17:48.547Z,94.46
2022-11-19T08:18:48.560Z,93.89
2022-11-19T08:19:48.589Z,94.08
2022-11-19T08:20:48.604Z,93.70
2022-11-19T08:21:48.603Z,94.18
2022-11-19T08:22:48.622Z,93.61
2022-11-19T08:23:48.630Z,93.23
2022-11-19T08:24:48.649Z,93.42
2022-11-19T08:25:48.664Z,92.29
2022-11-19T08:26:48.691Z,92.38
2022-11-19T08:27:48.690Z,92.19
2022-11-19T08:28:48.706Z,92.66
2022-11-19T08:29:48.722Z,92.47
2022-11-19T08:30:48.736Z,92.29
2022-11-19T08:31:48.752Z,91.62
2022-11-19T08:32:48.780Z,92.29
2022-11-19T08:33:48.778Z,92.19
2022-11-19T08:34:48.796Z,91.81
2022-11-19T08:35:48.843Z,92.19
2022-11-19T08:36:48.826Z,92.00
2022-11-19T08:37:48.840Z,92.10
2022-11-19T08:38:48.856Z,92.10
2022-11-19T08:39:48.870Z,92.29
2022-11-19T08:40:48.884Z,91.43
2022-11-19T08:41:48.899Z,92.00
2022-11-19T08:42:48.913Z,91.15
2022-11-19T08:43:48.930Z,90.68
2022-11-19T08:44:48.946Z,90.96
2022-11-19T08:45:48.961Z,90.77
2022-11-19T08:46:48.976Z,91.34
2022-11-19T08:47:48.986Z,91.34
2022-11-19T08:48:49.009Z,91.34
2022-11-19T08:49:49.055Z,90.96
2022-11-19T08:50:49.040Z,89.92
2022-11-19T08:51:49.045Z,89.73
2022-11-19T08:52:49.066Z,90.01
2022-11-19T08:53:49.080Z,89.64
2022-11-19T08:54:49.115Z,89.83
2022-11-19T08:55:49.109Z,89.26
2022-11-19T08:56:49.125Z,88.79
2022-11-19T08:57:49.139Z,88.60
2022-11-19T08:58:49.160Z,88.50
2022-11-19T08:59:49.170Z,88.41
2022-11-19T09:00:49.216Z,88.60
2022-11-19T09:01:49.203Z,88.12
2022-11-19T09:02:49.215Z,88.22
2022-11-19T09:03:49.230Z,87.74
2022-11-19T09:04:49.243Z,88.22
2022-11-19T09:05:49.270Z,87.84
2022-11-19T09:06:49.284Z,87.51
2022-11-19T09:07:49.294Z,87.84
2022-11-19T09:08:49.308Z,88.17
2022-11-19T09:09:49.341Z,87.70
2022-11-19T09:10:49.335Z,87.13
2022-11-19T09:11:49.369Z,87.13
2022-11-19T09:12:49.368Z,87.32
2022-11-19T09:13:49.386Z,87.41
2022-11-19T09:14:49.398Z,87.13
2022-11-19T09:15:49.414Z,86.66
2022-11-19T09:16:49.431Z,87.04
2022-11-19T09:17:49.450Z,87.23
2022-11-19T09:18:49.461Z,87.32
2022-11-19T09:19:49.480Z,87.70
2022-11-19T09:20:49.498Z,87.70
2022-11-19T09:21:49.506Z,87.41
2022-11-19T09:22:49.521Z,87.23
2022-11-19T09:23:49.538Z,86.66
2022-11-19T09:24:49.555Z,87.23
2022-11-19T09:25:49.565Z,86.47
2022-11-19T09:26:52.825Z,86.47
2022-11-19T09:27:49.599Z,86.28
2022-11-19T09:28:49.614Z,86.18
2022-11-19T09:29:49.635Z,86.18
2022-11-19T09:30:49.646Z,85.33
2022-11-19T09:31:49.663Z,85.14
2022-11-19T09:32:49.694Z,85.90
2022-11-19T09:33:49.692Z,85.52
2022-11-19T09:34:49.707Z,85.52
2022-11-19T09:35:49.727Z,86.09
2022-11-19T09:36:49.736Z,85.99
2022-11-19T09:37:49.756Z,86.28
2022-11-19T09:38:49.772Z,85.71
2022-11-19T09:39:56.942Z,86.18
2022-11-19T09:41:43.256Z,85.71
2022-11-19T09:42:42.724Z,85.90
2022-11-19T09:44:46.714Z,85.99
2022-11-19T09:45:46.728Z,85.71
2022-11-19T09:47:51.207Z,85.80
2022-11-19T09:48:50.758Z,85.52
2022-11-19T09:50:54.728Z,85.99
2022-11-19T09:51:54.735Z,86.28
2022-11-19T09:53:59.224Z,86.28
2022-11-19T09:54:58.740Z,86.28
2022-11-19T09:57:04.532Z,86.09
2022-11-19T09:58:02.757Z,85.90
2022-11-19T10:00:07.743Z,85.52
2022-11-19T10:01:06.749Z,85.61
2022-11-19T10:03:10.790Z,84.67
2022-11-19T10:04:10.761Z,85.14
2022-11-19T10:06:15.250Z,85.33
2022-11-19T10:07:14.771Z,85.90
2022-11-19T10:09:18.763Z,85.14
2022-11-19T10:10:18.772Z,84.86
2022-11-19T10:12:23.253Z,85.00
2022-11-19T10:13:22.766Z,84.81
2022-11-19T10:15:26.776Z,84.81
2022-11-19T10:16:26.782Z,84.61
2022-11-19T10:18:32.265Z,84.23
2022-11-19T10:19:31.835Z,83.67
2022-11-19T10:21:24.714Z,83.86
2022-11-19T10:22:24.723Z,83.48
2022-11-19T10:24:29.199Z,84.71
2022-11-19T10:25:28.719Z,84.14
2022-11-19T10:27:32.724Z,83.76
2022-11-19T10:28:32.727Z,83.20
2022-11-19T10:30:37.215Z,83.29
2022-11-19T10:31:36.737Z,83.10
2022-11-19T10:33:40.742Z,82.63
2022-11-19T10:34:40.746Z,82.72
2022-11-19T10:36:45.245Z,81.87
2022-11-19T10:37:44.773Z,81.12
2022-11-19T10:39:48.773Z,80.17
2022-11-19T10:40:48.775Z,80.64
2022-11-19T10:42:53.257Z,80.64
2022-11-19T10:43:52.798Z,80.64
2022-11-19T10:45:57.289Z,80.83
2022-11-19T10:46:57.294Z,80.07
2022-11-19T10:47:57.312Z,80.17
2022-11-19T10:48:57.329Z,79.88
2022-11-19T10:49:57.347Z,79.88
2022-11-19T10:50:57.358Z,80.17
2022-11-19T10:51:57.377Z,80.17
2022-11-19T10:52:57.389Z,79.79
2022-11-19T10:53:57.407Z,79.60
2022-11-19T10:54:57.425Z,80.07
2022-11-19T10:55:57.441Z,80.07
2022-11-19T10:56:57.453Z,79.60
2022-11-19T10:57:57.473Z,79.60
2022-11-19T10:58:57.496Z,79.79
2022-11-19T10:59:57.510Z,79.26
2022-11-19T11:00:57.591Z,78.94
2022-11-19T11:01:57.549Z,79.07
2022-11-19T11:03:04.713Z,79.26
2022-11-19T11:05:02.037Z,78.79
2022-11-19T11:06:01.563Z,78.31
2022-11-19T11:08:05.564Z,77.56
2022-11-19T11:09:05.564Z,77.46
2022-11-19T11:10:59.534Z,77.65
2022-11-19T11:11:58.993Z,78.03
2022-11-19T11:12:59.028Z,76.51
2022-11-19T11:13:59.025Z,77.18
2022-11-19T11:14:59.042Z,76.61
2022-11-19T11:15:59.062Z,76.61
2022-11-19T11:16:59.072Z,76.61
2022-11-19T11:17:59.093Z,77.27
2022-11-19T11:18:59.107Z,76.99
2022-11-19T11:19:59.123Z,76.99
2022-11-19T11:20:59.142Z,77.08
2022-11-19T11:21:59.158Z,76.04
2022-11-19T11:22:59.174Z,75.85
2022-11-19T11:23:59.190Z,75.85
2022-11-19T11:25:02.811Z,75.28
2022-11-19T11:25:59.221Z,75.76
2022-11-19T11:26:59.242Z,75.38
2022-11-19T11:27:59.259Z,75.00
2022-11-19T11:28:59.276Z,75.28
2022-11-19T11:29:59.294Z,75.28
2022-11-19T11:30:59.308Z,75.95
2022-11-19T11:31:59.352Z,74.90
2022-11-19T11:32:59.342Z,74.62
2022-11-19T11:33:59.361Z,74.24
2022-11-19T11:35:03.500Z,74.15
2022-11-19T11:35:59.391Z,74.75
2022-11-19T11:36:59.411Z,75.28
2022-11-19T11:37:59.431Z,74.85
2022-11-19T11:38:59.444Z,74.66
2022-11-19T11:39:59.463Z,74.28
2022-11-19T11:41:30.030Z,74.56
2022-11-19T11:42:05.939Z,75.23
2022-11-19T11:42:59.510Z,74.56
2022-11-19T11:43:59.530Z,74.95
2022-11-19T11:44:59.570Z,74.37
2022-11-19T11:45:59.570Z,74.28
2022-11-19T11:46:59.580Z,74.75
2022-11-19T11:47:59.600Z,74.95
2022-11-19T11:49:05.865Z,74.18
2022-11-19T11:49:59.633Z,74.47
2022-11-19T11:50:59.651Z,73.24
2022-11-19T11:51:59.667Z,73.52
2022-11-19T11:52:59.690Z,73.61
2022-11-19T11:53:59.762Z,73.80
2022-11-19T11:54:59.727Z,74.37
2022-11-19T11:55:59.734Z,73.99
2022-11-19T11:56:59.757Z,74.28
2022-11-19T11:57:59.769Z,74.28
2022-11-19T11:58:59.803Z,74.47
2022-11-19T11:59:59.808Z,74.56
2022-11-19T12:00:59.824Z,73.61
2022-11-19T12:01:59.913Z,73.52
2022-11-19T12:02:59.859Z,73.52
2022-11-19T12:03:59.870Z,73.52
2022-11-19T12:04:59.891Z,73.33
2022-11-19T12:05:59.906Z,73.43
2022-11-19T12:06:59.960Z,73.61
2022-11-19T12:07:59.943Z,73.52
2022-11-19T12:08:59.972Z,73.52
2022-11-19T12:09:59.978Z,73.52
2022-11-19T12:10:59.995Z,73.43
2022-11-19T12:12:00.012Z,73.24
2022-11-19T12:13:00.027Z,73.05
2022-11-19T12:14:00.046Z,74.47
2022-11-19T12:15:00.062Z,74.47
2022-11-19T12:16:00.091Z,74.37
2022-11-19T12:17:00.119Z,73.80
2022-11-19T12:18:00.115Z,73.43
2022-11-19T12:19:00.129Z,73.05
2022-11-19T12:20:00.153Z,72.57
2022-11-19T12:21:00.165Z,72.44
2022-11-19T12:22:00.189Z,72.38
2022-11-19T12:23:00.199Z,72.96
2022-11-19T12:24:00.217Z,73.52
2022-11-19T12:25:00.235Z,73.33
2022-11-19T12:26:00.254Z,73.24
2022-11-19T12:27:00.262Z,73.80
2022-11-19T12:28:00.287Z,73.33
2022-11-19T12:29:00.305Z,72.96
2022-11-19T12:30:01.171Z,72.77
2022-11-19T12:31:00.337Z,72.38
2022-11-19T12:32:00.631Z,73.05
2022-11-19T12:33:00.367Z,73.43
2022-11-19T12:34:00.386Z,73.90
2022-11-19T12:35:00.406Z,73.80
2022-11-19T12:36:00.419Z,73.99
2022-11-19T12:37:00.436Z,74.28
2022-11-19T12:38:00.456Z,74.75
2022-11-19T12:39:00.470Z,75.04
2022-11-19T12:40:00.491Z,75.13
2022-11-19T12:41:00.509Z,75.79
2022-11-19T12:42:00.532Z,75.98
2022-11-19T12:43:00.539Z,76.08
2022-11-19T12:44:00.561Z,76.04
2022-11-19T12:45:00.586Z,75.79
2022-11-19T12:46:00.600Z,75.60
2022-11-19T12:47:00.608Z,76.08
2022-11-19T12:48:00.644Z,75.89
2022-11-19T12:49:00.646Z,75.51
2022-11-19T12:50:00.659Z,75.28
2022-11-19T12:51:00.680Z,74.37
2022-11-19T12:52:00.695Z,74.71
2022-11-19T12:53:00.710Z,74.90
2022-11-19T12:54:00.727Z,75.32
2022-11-19T12:55:00.743Z,75.32
2022-11-19T12:56:00.760Z,75.89
2022-11-19T12:57:00.776Z,75.42
2022-11-19T12:58:00.793Z,75.23
2022-11-19T12:59:00.848Z,75.79
2022-11-19T13:00:00.828Z,75.32
2022-11-19T13:01:00.898Z,75.89
2022-11-19T13:02:00.864Z,75.60
2022-11-19T13:03:00.900Z,75.32
2022-11-19T13:04:00.903Z,75.89
2022-11-19T13:05:00.912Z,75.51
2022-11-19T13:06:00.930Z,75.13
2022-11-19T13:07:01.014Z,75.23
2022-11-19T13:08:00.966Z,74.47
2022-11-19T13:09:00.982Z,74.66
2022-11-19T13:10:00.998Z,75.23
2022-11-19T13:11:01.014Z,74.75
2022-11-19T13:12:01.032Z,74.95
2022-11-19T13:13:01.046Z,74.75
2022-11-19T13:14:01.077Z,74.18
2022-11-19T13:15:01.082Z,74.47
2022-11-19T13:16:01.099Z,74.47
2022-11-19T13:17:01.124Z,74.47
2022-11-19T13:18:01.135Z,74.09
2022-11-19T13:19:01.152Z,74.09